Cape Borda, Australia
Current Conditions -  °F | °C
As of 6:00 PM on Thursday 27 Nov 2014 (Local Time) from YPAD Reporting Station
Few Clouds Few Clouds  
Wind Chill: 77°   Ceiling: Unl
Heat Index: 78°   Visibility: 6mi
Dew Point: 43°   Wind: 14mph
Humidity: 29%   Direction: 150°SSE
Pressure: 30.12"   Gusts: NA
Location:  35.77°S, 136.76°E
Report Text: YPAD 270800Z 15012KT 9999 FEW038 25/06 Q1020 NOSIG
Loading
Personal Weather Stations






























Interactive Weather Map New forecast layout! Learn more

10-Day Weather Forecast

Advertisements
Track Severe Weather on mobile